Wetterdaten: Woche 03.12.12 - 09.12.12 (KW49)
Datum Zeit Temperatur Luftfeuchte Luftdruck Niederschlag Windrichtung Sonnenschein Solar Wind
03.12.2012 00:00 -1,8 C 94 % 1017,3 hPa 0,0 l/m W 0,00 h 0 W/m 16,1 km/h (3 Bft)
03.12.2012 01:00 -1,8 C 95 % 1017,6 hPa 0,0 l/m W 0,00 h 0 W/m 16,9 km/h (3 Bft)
03.12.2012 02:00 -1,8 C 95 % 1017,9 hPa 0,0 l/m W 0,00 h 0 W/m 15,2 km/h (3 Bft)
03.12.2012 03:00 -1,7 C 95 % 1018,2 hPa 0,0 l/m W-SW 0,00 h 0 W/m 16,8 km/h (3 Bft)
03.12.2012 04:00 -1,8 C 95 % 1018,4 hPa 0,2 l/m W 0,00 h 0 W/m 13,7 km/h (3 Bft)
03.12.2012 05:00 -1,7 C 95 % 1018,8 hPa 0,0 l/m W-SW 0,00 h 0 W/m 16,4 km/h (3 Bft)
03.12.2012 06:00 -1,8 C 95 % 1019,3 hPa 0,0 l/m W-SW 0,00 h 0 W/m 13,6 km/h (3 Bft)
03.12.2012 07:00 -1,9 C 94 % 1019,6 hPa 0,0 l/m W-SW 0,00 h 0 W/m 15,7 km/h (3 Bft)
03.12.2012 08:00 -2,1 C 92 % 1019,9 hPa 0,0 l/m W-SW 0,00 h 20 W/m 15,2 km/h (3 Bft)
03.12.2012 09:00 -2,1 C 92 % 1019,9 hPa 0,0 l/m W-SW 0,33 h 91 W/m 11,8 km/h (2 Bft)
03.12.2012 10:00 -1,7 C 90 % 1019,6 hPa 0,0 l/m W-SW 0,58 h 180 W/m 18,9 km/h (3 Bft)
03.12.2012 11:00 -1,0 C 89 % 1018,7 hPa 0,0 l/m SW 0,92 h 257 W/m 18,0 km/h (3 Bft)
03.12.2012 12:00 -0,7 C 85 % 1017,5 hPa 0,0 l/m W-SW 0,17 h 163 W/m 18,0 km/h (3 Bft)
03.12.2012 13:00 -0,6 C 84 % 1016,5 hPa 0,0 l/m W-SW 0,00 h 110 W/m 16,4 km/h (3 Bft)
03.12.2012 14:00 -0,6 C 83 % 1015,7 hPa 0,0 l/m W-SW 0,00 h 57 W/m 18,6 km/h (3 Bft)
03.12.2012 15:00 -1,4 C 91 % 1014,7 hPa 0,0 l/m SW 0,00 h 21 W/m 19,2 km/h (3 Bft)
03.12.2012 16:00 -1,8 C 94 % 1013,4 hPa 0,2 l/m SW 0,00 h 5 W/m 29,4 km/h (5 Bft)
03.12.2012 17:00 -1,7 C 95 % 1012,6 hPa 0,0 l/m SW 0,00 h 0 W/m 27,5 km/h (4 Bft)
03.12.2012 18:00 -1,4 C 96 % 1012,2 hPa 0,4 l/m SW 0,00 h 0 W/m 20,5 km/h (4 Bft)
03.12.2012 19:00 -0,9 C 96 % 1011,6 hPa 0,0 l/m W-SW 0,00 h 0 W/m 20,4 km/h (4 Bft)
03.12.2012 20:00 -0,5 C 97 % 1011,1 hPa 0,0 l/m SW 0,00 h 0 W/m 19,3 km/h (3 Bft)
03.12.2012 21:00 0,8 C 98 % 1010,0 hPa 0,0 l/m W-SW 0,00 h 0 W/m 25,5 km/h (4 Bft)
03.12.2012 22:00 1,3 C 97 % 1009,3 hPa 0,0 l/m SW 0,00 h 0 W/m 24,1 km/h (4 Bft)
03.12.2012 23:00 1,5 C 97 % 1008,3 hPa 0,4 l/m W-SW 0,00 h 0 W/m 25,5 km/h (4 Bft)
04.12.2012 00:00 1,8 C 97 % 1007,9 hPa 0,0 l/m W-SW 0,00 h 0 W/m 29,4 km/h (5 Bft)
04.12.2012 01:00 1,9 C 96 % 1007,4 hPa 0,0 l/m W-SW 0,00 h 0 W/m 26,9 km/h (4 Bft)
04.12.2012 02:00 2,1 C 97 % 1006,7 hPa 0,0 l/m W-SW 0,00 h 0 W/m 23,2 km/h (4 Bft)
04.12.2012 03:00 2,3 C 96 % 1005,9 hPa 0,0 l/m SW 0,00 h 0 W/m 21,4 km/h (4 Bft)
04.12.2012 04:00 2,1 C 96 % 1004,4 hPa 0,0 l/m SW 0,00 h 0 W/m 12,3 km/h (3 Bft)
04.12.2012 05:00 1,7 C 96 % 1002,7 hPa 0,2 l/m SW 0,00 h 0 W/m 11,7 km/h (2 Bft)
04.12.2012 06:00 1,6 C 97 % 1001,5 hPa 0,2 l/m SW 0,00 h 0 W/m 11,4 km/h (2 Bft)
04.12.2012 07:00 1,7 C 98 % 1000,8 hPa 0,0 l/m SW 0,00 h 0 W/m 15,3 km/h (3 Bft)
04.12.2012 08:00 2,7 C 98 % 1000,9 hPa 2,0 l/m SW 0,00 h 18 W/m 31,5 km/h (5 Bft)
04.12.2012 09:00 3,0 C 97 % 1000,6 hPa 0,0 l/m W 0,17 h 60 W/m 29,4 km/h (5 Bft)
04.12.2012 10:00 3,7 C 93 % 1001,2 hPa 0,0 l/m W 0,08 h 108 W/m 42,0 km/h (6 Bft)
04.12.2012 11:00 3,7 C 91 % 1002,7 hPa 0,0 l/m W-NW 0,08 h 122 W/m 29,5 km/h (5 Bft)
04.12.2012 12:00 3,3 C 88 % 1003,6 hPa 0,0 l/m W 0,00 h 73 W/m 20,8 km/h (4 Bft)
04.12.2012 13:00 2,9 C 86 % 1003,6 hPa 0,0 l/m W-NW 0,00 h 63 W/m 15,0 km/h (3 Bft)
04.12.2012 14:00 2,9 C 87 % 1003,3 hPa 0,0 l/m W-NW 0,00 h 51 W/m 4,7 km/h (1 Bft)
04.12.2012 15:00 2,7 C 89 % 1003,0 hPa 0,0 l/m W-NW 0,00 h 35 W/m 2,9 km/h (1 Bft)
04.12.2012 16:00 2,4 C 89 % 1002,7 hPa 0,0 l/m W 0,00 h 8 W/m 4,7 km/h (1 Bft)
04.12.2012 17:00 2,0 C 90 % 1002,6 hPa 0,2 l/m W 0,00 h 0 W/m 2,8 km/h (1 Bft)
04.12.2012 18:00 1,3 C 92 % 1002,8 hPa 2,0 l/m N 0,00 h 0 W/m 0,1 km/h (0 Bft)
04.12.2012 19:00 0,8 C 93 % 1003,3 hPa 0,8 l/m W 0,00 h 0 W/m 5,5 km/h (1 Bft)
04.12.2012 20:00 0,5 C 95 % 1003,6 hPa 0,2 l/m W-SW 0,00 h 0 W/m 8,2 km/h (2 Bft)
04.12.2012 21:00 0,4 C 95 % 1003,5 hPa 0,0 l/m W-SW 0,00 h 0 W/m 10,9 km/h (2 Bft)
04.12.2012 22:00 0,6 C 95 % 1003,2 hPa 0,0 l/m W-SW 0,00 h 0 W/m 7,8 km/h (2 Bft)
04.12.2012 23:00 0,6 C 96 % 1002,7 hPa 0,0 l/m SW 0,00 h 0 W/m 5,7 km/h (1 Bft)
05.12.2012 00:00 0,6 C 96 % 1002,2 hPa 0,0 l/m W-SW 0,00 h 0 W/m 8,6 km/h (2 Bft)
05.12.2012 01:00 0,6 C 96 % 1002,1 hPa 0,0 l/m W-SW 0,00 h 0 W/m 11,3 km/h (2 Bft)
05.12.2012 02:00 0,3 C 96 % 1002,3 hPa 0,0 l/m W-SW 0,00 h 0 W/m 8,6 km/h (2 Bft)
05.12.2012 03:00 0,3 C 96 % 1002,0 hPa 0,0 l/m W-SW 0,00 h 0 W/m 7,5 km/h (2 Bft)
05.12.2012 04:00 0,4 C 96 % 1001,9 hPa 0,0 l/m W-SW 0,00 h 0 W/m 5,7 km/h (1 Bft)
05.12.2012 05:00 0,3 C 96 % 1001,8 hPa 0,0 l/m W-SW 0,00 h 0 W/m 6,3 km/h (2 Bft)
05.12.2012 06:00 0,2 C 96 % 1002,1 hPa 0,0 l/m SW 0,00 h 0 W/m 8,0 km/h (2 Bft)
05.12.2012 07:00 0,2 C 97 % 1002,2 hPa 0,0 l/m SW 0,00 h 0 W/m 7,2 km/h (2 Bft)
05.12.2012 08:00 0,4 C 97 % 1002,7 hPa 0,0 l/m W 0,00 h 13 W/m 9,8 km/h (2 Bft)
05.12.2012 09:00 0,5 C 96 % 1003,3 hPa 0,0 l/m W 0,00 h 41 W/m 9,1 km/h (2 Bft)
05.12.2012 10:00 0,8 C 95 % 1003,9 hPa 0,0 l/m W-SW 0,00 h 79 W/m 8,7 km/h (2 Bft)
05.12.2012 11:00 1,0 C 95 % 1004,0 hPa 0,0 l/m W-SW 0,00 h 79 W/m 9,7 km/h (2 Bft)
05.12.2012 12:00 1,5 C 94 % 1004,2 hPa 0,0 l/m W-SW 0,67 h 295 W/m 13,3 km/h (3 Bft)
05.12.2012 13:00 2,1 C 90 % 1004,1 hPa 0,0 l/m SW 0,83 h 286 W/m 15,7 km/h (3 Bft)
05.12.2012 14:00 1,5 C 90 % 1004,4 hPa 0,0 l/m SW 0,08 h 62 W/m 13,4 km/h (3 Bft)
05.12.2012 15:00 1,3 C 92 % 1004,6 hPa 0,0 l/m W-SW 0,00 h 29 W/m 9,4 km/h (2 Bft)
05.12.2012 16:00 0,8 C 92 % 1004,4 hPa 0,0 l/m W-SW 0,00 h 10 W/m 6,5 km/h (2 Bft)
05.12.2012 17:00 0,2 C 93 % 1004,7 hPa 0,0 l/m W-SW 0,00 h 0 W/m 4,8 km/h (1 Bft)
05.12.2012 18:00 -0,5 C 93 % 1005,1 hPa 0,0 l/m W-SW 0,00 h 0 W/m 2,3 km/h (1 Bft)
05.12.2012 19:00 -0,4 C 95 % 1005,3 hPa 0,0 l/m W-SW 0,00 h 0 W/m 4,9 km/h (1 Bft)
05.12.2012 20:00 -0,0 C 96 % 1005,5 hPa 0,0 l/m W 0,00 h 0 W/m 8,3 km/h (2 Bft)
05.12.2012 21:00 -0,1 C 95 % 1005,6 hPa 0,0 l/m W 0,00 h 0 W/m 4,9 km/h (1 Bft)
05.12.2012 22:00 -0,6 C 95 % 1005,5 hPa 0,0 l/m W 0,00 h 0 W/m 4,8 km/h (1 Bft)
05.12.2012 23:00 -0,3 C 96 % 1005,7 hPa 0,0 l/m W-SW 0,00 h 0 W/m 7,0 km/h (2 Bft)
06.12.2012 00:00 -0,2 C 97 % 1005,7 hPa 0,0 l/m W-SW 0,00 h 0 W/m 4,1 km/h (1 Bft)
06.12.2012 01:00 -0,2 C 97 % 1005,8 hPa 0,2 l/m W-SW 0,00 h 0 W/m 3,9 km/h (1 Bft)
06.12.2012 02:00 -0,3 C 97 % 1006,3 hPa 0,0 l/m W 0,00 h 0 W/m 6,3 km/h (2 Bft)
06.12.2012 03:00 -0,5 C 96 % 1006,8 hPa 0,0 l/m W 0,00 h 0 W/m 3,9 km/h (1 Bft)
06.12.2012 04:00 -0,7 C 96 % 1007,4 hPa 0,0 l/m W 0,00 h 0 W/m 5,9 km/h (2 Bft)
06.12.2012 05:00 -0,7 C 95 % 1008,5 hPa 0,0 l/m W-NW 0,00 h 0 W/m 11,4 km/h (2 Bft)
06.12.2012 06:00 -1,0 C 91 % 1009,8 hPa 0,0 l/m W 0,00 h 0 W/m 14,9 km/h (3 Bft)
06.12.2012 07:00 -1,4 C 88 % 1010,7 hPa 0,0 l/m W-NW 0,00 h 0 W/m 14,0 km/h (3 Bft)
06.12.2012 08:00 -1,5 C 90 % 1012,1 hPa 0,0 l/m W-NW 0,00 h 16 W/m 9,4 km/h (2 Bft)
06.12.2012 09:00 -1,3 C 93 % 1013,3 hPa 0,2 l/m W-NW 0,00 h 54 W/m 14,6 km/h (3 Bft)
06.12.2012 10:00 -1,1 C 90 % 1014,3 hPa 0,2 l/m W-NW 0,25 h 118 W/m 12,8 km/h (3 Bft)
06.12.2012 11:00 -1,2 C 83 % 1014,8 hPa 0,0 l/m W-NW 0,17 h 142 W/m 22,4 km/h (4 Bft)
06.12.2012 12:00 -1,0 C 81 % 1015,1 hPa 0,0 l/m W-NW 1,00 h 335 W/m 22,6 km/h (4 Bft)
06.12.2012 13:00 -1,0 C 79 % 1015,6 hPa 0,0 l/m W-NW 0,42 h 131 W/m 19,2 km/h (3 Bft)
06.12.2012 14:00 -1,4 C 78 % 1016,2 hPa 0,0 l/m W-NW 0,58 h 125 W/m 17,3 km/h (3 Bft)
06.12.2012 15:00 -1,1 C 74 % 1016,8 hPa 0,0 l/m W-NW 0,42 h 74 W/m 10,6 km/h (2 Bft)
06.12.2012 16:00 -1,9 C 76 % 1017,3 hPa 0,0 l/m W-NW 0,00 h 9 W/m 4,0 km/h (1 Bft)
06.12.2012 17:00 -3,3 C 82 % 1017,9 hPa 0,0 l/m W-SW 0,00 h 0 W/m 5,6 km/h (1 Bft)
06.12.2012 18:00 -3,9 C 85 % 1018,2 hPa 0,0 l/m W-SW 0,00 h 0 W/m 5,5 km/h (1 Bft)
06.12.2012 19:00 -4,1 C 86 % 1018,2 hPa 0,0 l/m W-SW 0,00 h 0 W/m 4,4 km/h (1 Bft)
06.12.2012 20:00 -4,8 C 86 % 1017,9 hPa 0,0 l/m N 0,00 h 0 W/m 0,5 km/h (0 Bft)
06.12.2012 21:00 -6,0 C 87 % 1018,0 hPa 0,0 l/m N 0,00 h 0 W/m 0,7 km/h (0 Bft)
06.12.2012 22:00 -6,9 C 89 % 1017,8 hPa 0,0 l/m N 0,00 h 0 W/m 0,5 km/h (0 Bft)
06.12.2012 23:00 -7,5 C 90 % 1017,5 hPa 0,0 l/m N 0,00 h 0 W/m 0,0 km/h (0 Bft)
07.12.2012 00:00 -7,9 C 91 % 1016,8 hPa 0,0 l/m N 0,00 h 0 W/m 0,0 km/h (0 Bft)
07.12.2012 01:00 -8,5 C 91 % 1015,9 hPa 0,0 l/m N 0,00 h 0 W/m 0,0 km/h (0 Bft)
07.12.2012 02:00 -8,8 C 92 % 1015,1 hPa 0,0 l/m N 0,00 h 0 W/m 0,0 km/h (0 Bft)
07.12.2012 03:00 -8,8 C 92 % 1014,5 hPa 0,0 l/m N 0,00 h 0 W/m 0,4 km/h (0 Bft)
07.12.2012 04:00 -8,3 C 94 % 1013,8 hPa 0,0 l/m N 0,00 h 0 W/m 0,5 km/h (0 Bft)
07.12.2012 05:00 -7,7 C 94 % 1012,7 hPa 0,0 l/m N 0,00 h 0 W/m 0,0 km/h (0 Bft)
07.12.2012 06:00 -7,6 C 94 % 1011,7 hPa 0,0 l/m N 0,00 h 0 W/m 0,0 km/h (0 Bft)
07.12.2012 07:00 -7,3 C 95 % 1010,6 hPa 0,0 l/m N 0,00 h 0 W/m 0,4 km/h (0 Bft)
07.12.2012 08:00 -6,9 C 95 % 1009,9 hPa 0,0 l/m N 0,00 h 15 W/m 0,3 km/h (0 Bft)
07.12.2012 09:00 -6,1 C 95 % 1008,9 hPa 0,0 l/m W-SW 0,00 h 53 W/m 2,4 km/h (1 Bft)
07.12.2012 10:00 -5,0 C 90 % 1007,7 hPa 0,0 l/m W-SW 0,00 h 74 W/m 1,9 km/h (1 Bft)
07.12.2012 11:00 -4,1 C 87 % 1006,1 hPa 0,0 l/m N-NW 0,00 h 101 W/m 2,4 km/h (1 Bft)
07.12.2012 12:00 -3,7 C 86 % 1005,5 hPa 0,0 l/m NW 0,00 h 62 W/m 6,0 km/h (2 Bft)
07.12.2012 13:00 -3,3 C 84 % 1005,3 hPa 0,0 l/m NW 0,00 h 42 W/m 5,5 km/h (1 Bft)
07.12.2012 14:00 -3,3 C 89 % 1004,7 hPa 0,2 l/m NW 0,00 h 40 W/m 3,1 km/h (1 Bft)
07.12.2012 15:00 -3,2 C 90 % 1004,4 hPa 0,0 l/m N 0,00 h 14 W/m 2,4 km/h (1 Bft)
07.12.2012 16:00 -3,4 C 91 % 1004,4 hPa 0,8 l/m N 0,00 h 6 W/m 1,7 km/h (1 Bft)
07.12.2012 17:00 -3,6 C 93 % 1004,6 hPa 1,0 l/m N 0,00 h 0 W/m 0,1 km/h (0 Bft)
07.12.2012 18:00 -3,5 C 94 % 1005,1 hPa 0,6 l/m N 0,00 h 0 W/m 0,3 km/h (0 Bft)
07.12.2012 19:00 -3,5 C 94 % 1005,5 hPa 0,2 l/m N 0,00 h 0 W/m 0,7 km/h (0 Bft)
07.12.2012 20:00 -3,6 C 94 % 1006,1 hPa 0,0 l/m N 0,00 h 0 W/m 0,0 km/h (0 Bft)
07.12.2012 21:00 -3,4 C 95 % 1006,5 hPa 0,0 l/m N 0,00 h 0 W/m 0,1 km/h (0 Bft)
07.12.2012 22:00 -3,3 C 95 % 1006,7 hPa 0,0 l/m N 0,00 h 0 W/m 0,0 km/h (0 Bft)
07.12.2012 23:00 -3,4 C 95 % 1007,3 hPa 0,0 l/m N 0,00 h 0 W/m 0,8 km/h (0 Bft)
08.12.2012 00:00 -3,3 C 95 % 1007,7 hPa 0,0 l/m N 0,00 h 0 W/m 1,3 km/h (1 Bft)
08.12.2012 01:00 -3,3 C 95 % 1007,9 hPa 0,0 l/m N-NO 0,00 h 0 W/m 2,4 km/h (1 Bft)
08.12.2012 02:00 -3,3 C 96 % 1008,4 hPa 0,0 l/m N 0,00 h 0 W/m 1,5 km/h (1 Bft)
08.12.2012 03:00 -3,2 C 96 % 1009,0 hPa 0,0 l/m N-NO 0,00 h 0 W/m 3,9 km/h (1 Bft)
08.12.2012 04:00 -3,3 C 96 % 1009,7 hPa 0,0 l/m NO 0,00 h 0 W/m 5,2 km/h (1 Bft)
08.12.2012 05:00 -3,6 C 96 % 1010,5 hPa 0,0 l/m N-NO 0,00 h 0 W/m 5,6 km/h (1 Bft)
08.12.2012 06:00 -4,0 C 96 % 1011,9 hPa 0,0 l/m N-NO 0,00 h 0 W/m 9,0 km/h (2 Bft)
08.12.2012 07:00 -4,6 C 95 % 1013,2 hPa 0,0 l/m N-NO 0,00 h 0 W/m 7,8 km/h (2 Bft)
08.12.2012 08:00 -5,4 C 94 % 1014,5 hPa 0,0 l/m N-NO 0,00 h 10 W/m 9,1 km/h (2 Bft)
08.12.2012 09:00 -5,8 C 94 % 1016,3 hPa 0,0 l/m NO 0,00 h 16 W/m 9,8 km/h (2 Bft)
08.12.2012 10:00 -5,7 C 94 % 1018,0 hPa 0,0 l/m NO 0,00 h 38 W/m 9,1 km/h (2 Bft)
08.12.2012 11:00 -5,6 C 92 % 1019,0 hPa 0,0 l/m NO 0,00 h 46 W/m 11,0 km/h (2 Bft)
08.12.2012 12:00 -5,6 C 90 % 1019,8 hPa 0,0 l/m N-NO 0,00 h 49 W/m 8,7 km/h (2 Bft)
08.12.2012 13:00 -5,4 C 90 % 1020,5 hPa 0,0 l/m O 0,00 h 46 W/m 5,4 km/h (1 Bft)
08.12.2012 14:00 -5,4 C 89 % 1021,3 hPa 0,0 l/m N-NO 0,00 h 31 W/m 5,1 km/h (1 Bft)
08.12.2012 15:00 -5,8 C 89 % 1022,3 hPa 0,0 l/m N 0,00 h 18 W/m 1,9 km/h (1 Bft)
08.12.2012 16:00 -6,0 C 89 % 1023,3 hPa 0,0 l/m O-NO 0,00 h 6 W/m 4,1 km/h (1 Bft)
08.12.2012 17:00 -6,3 C 89 % 1024,1 hPa 0,0 l/m N 0,00 h 0 W/m 2,4 km/h (1 Bft)
08.12.2012 18:00 -6,4 C 89 % 1024,9 hPa 0,0 l/m N 0,00 h 0 W/m 1,3 km/h (1 Bft)
08.12.2012 19:00 -6,9 C 89 % 1025,6 hPa 0,0 l/m NO 0,00 h 0 W/m 1,9 km/h (1 Bft)
08.12.2012 20:00 -8,0 C 88 % 1026,1 hPa 0,0 l/m N 0,00 h 0 W/m 0,3 km/h (0 Bft)
08.12.2012 21:00 -9,2 C 88 % 1026,6 hPa 0,0 l/m N 0,00 h 0 W/m 0,0 km/h (0 Bft)
08.12.2012 22:00 -10,3 C 88 % 1027,3 hPa 0,0 l/m N 0,00 h 0 W/m 0,4 km/h (0 Bft)
08.12.2012 23:00 -11,2 C 89 % 1027,5 hPa 0,0 l/m N 0,00 h 0 W/m 1,2 km/h (1 Bft)
09.12.2012 00:00 -11,8 C 90 % 1027,4 hPa 0,0 l/m N 0,00 h 0 W/m 0,0 km/h (0 Bft)
09.12.2012 01:00 -11,3 C 91 % 1027,5 hPa 0,0 l/m N 0,00 h 0 W/m 1,5 km/h (1 Bft)
09.12.2012 02:00 -11,2 C 92 % 1027,6 hPa 0,0 l/m N 0,00 h 0 W/m 0,3 km/h (0 Bft)
09.12.2012 03:00 -10,7 C 93 % 1027,5 hPa 0,0 l/m N 0,00 h 0 W/m 0,3 km/h (0 Bft)
09.12.2012 04:00 -10,6 C 92 % 1027,6 hPa 0,0 l/m N 0,00 h 0 W/m 0,0 km/h (0 Bft)
09.12.2012 05:00 -11,0 C 92 % 1027,5 hPa 0,0 l/m N 0,00 h 0 W/m 0,3 km/h (0 Bft)
09.12.2012 06:00 -11,0 C 93 % 1027,4 hPa 0,0 l/m N 0,00 h 0 W/m 0,1 km/h (0 Bft)
09.12.2012 07:00 -10,0 C 94 % 1027,1 hPa 0,0 l/m N 0,00 h 0 W/m 0,4 km/h (0 Bft)
09.12.2012 08:00 -9,4 C 95 % 1026,7 hPa 0,0 l/m NO 0,00 h 21 W/m 3,3 km/h (1 Bft)
09.12.2012 09:00 -7,4 C 96 % 1026,3 hPa 0,0 l/m SW 0,17 h 81 W/m 7,5 km/h (2 Bft)
09.12.2012 10:00 -4,9 C 96 % 1026,1 hPa 0,0 l/m W-SW 0,17 h 124 W/m 18,1 km/h (3 Bft)
09.12.2012 11:00 -3,5 C 93 % 1025,4 hPa 0,0 l/m W-SW 0,08 h 130 W/m 23,7 km/h (4 Bft)
09.12.2012 12:00 -2,7 C 90 % 1024,5 hPa 0,0 l/m SW 0,00 h 120 W/m 18,2 km/h (3 Bft)
09.12.2012 13:00 -2,5 C 91 % 1023,4 hPa 0,0 l/m W-SW 0,00 h 76 W/m 17,4 km/h (3 Bft)
09.12.2012 14:00 -2,7 C 94 % 1022,2 hPa 0,2 l/m W-SW 0,00 h 46 W/m 16,8 km/h (3 Bft)
09.12.2012 15:00 -2,9 C 95 % 1021,2 hPa 0,2 l/m SW 0,00 h 20 W/m 23,8 km/h (4 Bft)
09.12.2012 16:00 -3,2 C 95 % 1020,5 hPa 1,0 l/m W-SW 0,00 h 5 W/m 29,1 km/h (5 Bft)
09.12.2012 17:00 -3,2 C 96 % 1019,8 hPa 0,4 l/m W-SW 0,00 h 0 W/m 27,8 km/h (4 Bft)
09.12.2012 18:00 -2,9 C 96 % 1018,8 hPa 0,0 l/m W-SW 0,00 h 0 W/m 35,9 km/h (5 Bft)
09.12.2012 19:00 -2,7 C 95 % 1017,9 hPa 0,2 l/m SW 0,00 h 0 W/m 35,8 km/h (5 Bft)
09.12.2012 20:00 -2,4 C 95 % 1017,5 hPa 0,0 l/m W-SW 0,00 h 0 W/m 33,9 km/h (5 Bft)
09.12.2012 21:00 -2,1 C 96 % 1016,7 hPa 0,2 l/m W-SW 0,00 h 0 W/m 35,9 km/h (5 Bft)
09.12.2012 22:00 -1,8 C 96 % 1016,0 hPa 0,0 l/m W-SW 0,00 h 0 W/m 34,6 km/h (5 Bft)
09.12.2012 23:00 -1,5 C 96 % 1015,2 hPa 0,0 l/m W-SW 0,00 h 0 W/m 30,3 km/h (5 Bft)
Min-Datum _ 09.12.12 06.12.12 04.12.12 - - - - 04.12.12
_ Min-Zeit 00:25 15:55 09:50 - - - - 14:15
Minimum _ -12,0 C 73 % 1000,3 hPa - - - - 0,0 km/h (0 Bft)
Max-Datum _ 04.12.12 04.12.12 09.12.12 04.12.12 - 03.12.12 05.12.12 04.12.12
_ Max-Zeit 10:45 08:10 02:40 08:05 - 09:40 12:55 10:55
Maximum _ 3,9 C 99 % 1027,8 hPa 2,0 l/m - 0,08 h 510 W/m 56,3 km/h
W-NW (7 Bft)
Durchschnitt _ -2,6 C 92 % 1012,3 hPa #12,4 l/m W-SW #7:10 h 73 W/m 10,5 km/h (2 Bft)